createdAt,value
2018-05-31T00:00:30.220Z,55.20
2018-05-31T00:01:35.365Z,55.10
2018-05-31T00:02:40.156Z,55.20
2018-05-31T00:03:45.120Z,55.20
2018-05-31T00:04:50.108Z,55.20
2018-05-31T00:05:54.758Z,55.30
2018-05-31T00:06:59.661Z,55.20
2018-05-31T00:08:04.619Z,55.30
2018-05-31T00:09:09.550Z,55.30
2018-05-31T00:10:14.517Z,55.40
2018-05-31T00:11:19.523Z,55.20
2018-05-31T00:12:24.452Z,55.90
2018-05-31T00:13:29.381Z,55.20
2018-05-31T00:14:34.321Z,55.10
2018-05-31T00:15:39.305Z,55.10
2018-05-31T00:16:44.175Z,55.10
2018-05-31T00:17:50.211Z,55.00
2018-05-31T00:18:55.161Z,55.00
2018-05-31T00:20:00.084Z,55.00
2018-05-31T00:21:04.929Z,55.00
2018-05-31T00:22:09.989Z,55.00
2018-05-31T00:23:14.716Z,55.00
2018-05-31T00:24:19.510Z,55.60
2018-05-31T00:25:24.256Z,54.90
2018-05-31T00:26:29.135Z,54.80
2018-05-31T00:27:33.943Z,54.80
2018-05-31T00:28:38.647Z,54.80
2018-05-31T00:29:43.400Z,54.80
2018-05-31T00:30:48.200Z,54.80
2018-05-31T00:31:52.999Z,54.70
2018-05-31T00:32:57.833Z,54.70
2018-05-31T00:34:02.508Z,54.70
2018-05-31T00:35:07.098Z,54.70
2018-05-31T00:36:12.045Z,54.70
2018-05-31T00:37:16.917Z,54.70
2018-05-31T00:38:21.707Z,54.70
2018-05-31T00:39:26.683Z,54.70
2018-05-31T00:40:31.654Z,54.70
2018-05-31T00:41:36.679Z,54.70
2018-05-31T00:42:41.475Z,54.60
2018-05-31T00:43:46.447Z,54.60
2018-05-31T00:44:51.258Z,54.60
2018-05-31T00:45:56.092Z,54.60
2018-05-31T00:47:01.087Z,54.50
2018-05-31T00:48:06.088Z,54.50
2018-05-31T00:49:11.214Z,54.50
2018-05-31T00:50:16.020Z,54.50
2018-05-31T00:51:21.068Z,54.50
2018-05-31T00:52:25.916Z,54.50
2018-05-31T00:53:30.728Z,54.50
2018-05-31T00:54:35.556Z,54.50
2018-05-31T00:55:40.388Z,54.40
2018-05-31T00:56:45.109Z,55.10
2018-05-31T00:57:49.982Z,54.40
2018-05-31T00:58:54.874Z,54.40
2018-05-31T00:59:59.889Z,54.30
2018-05-31T01:01:04.693Z,54.30
2018-05-31T01:02:09.477Z,54.30
2018-05-31T01:03:14.289Z,54.20
2018-05-31T01:04:19.242Z,54.20
2018-05-31T01:05:24.010Z,54.20
2018-05-31T01:06:30.326Z,54.10
2018-05-31T01:07:35.329Z,54.20
2018-05-31T01:08:40.445Z,54.10
2018-05-31T01:09:45.403Z,54.00
2018-05-31T01:10:50.320Z,53.90
2018-05-31T01:11:55.295Z,53.90
2018-05-31T01:13:00.125Z,53.90
2018-05-31T01:14:05.040Z,53.80
2018-05-31T01:15:09.870Z,53.80
2018-05-31T01:16:14.931Z,53.80
2018-05-31T01:17:20.742Z,53.70
2018-05-31T01:18:25.719Z,53.70
2018-05-31T01:19:30.598Z,53.60
2018-05-31T01:20:35.445Z,53.60
2018-05-31T01:21:40.519Z,53.60
2018-05-31T01:22:45.270Z,53.50
2018-05-31T01:23:49.998Z,53.40
2018-05-31T01:24:55.033Z,53.50
2018-05-31T01:26:00.029Z,53.40
2018-05-31T01:27:04.918Z,53.40
2018-05-31T01:28:09.868Z,53.40
2018-05-31T01:29:14.915Z,53.30
2018-05-31T01:30:19.788Z,53.30
2018-05-31T01:31:24.738Z,53.20
2018-05-31T01:32:29.740Z,53.20
2018-05-31T01:33:34.693Z,53.20
2018-05-31T01:34:39.821Z,53.00
2018-05-31T01:35:44.664Z,53.00
2018-05-31T01:36:49.508Z,52.90
2018-05-31T01:37:54.474Z,52.90
2018-05-31T01:38:59.489Z,52.80
2018-05-31T01:40:04.259Z,52.60
2018-05-31T01:41:09.215Z,52.50
2018-05-31T01:42:14.279Z,52.50
2018-05-31T01:43:19.335Z,52.40
2018-05-31T01:44:24.064Z,52.20
2018-05-31T01:45:29.051Z,52.00
2018-05-31T01:46:34.030Z,51.90
2018-05-31T01:47:38.890Z,51.80
2018-05-31T01:48:44.630Z,51.90
2018-05-31T01:49:49.606Z,51.70
2018-05-31T01:50:54.529Z,51.70
2018-05-31T01:51:59.301Z,51.70
2018-05-31T01:53:04.296Z,51.70
2018-05-31T01:54:09.285Z,51.60
2018-05-31T01:55:14.273Z,51.60
2018-05-31T01:56:19.491Z,51.60
2018-05-31T01:57:24.475Z,51.60
2018-05-31T01:58:29.525Z,51.50
2018-05-31T01:59:34.615Z,51.50
2018-05-31T02:00:39.586Z,51.40
2018-05-31T02:01:44.444Z,51.50
2018-05-31T02:02:49.391Z,51.40
2018-05-31T02:03:54.349Z,51.40
2018-05-31T02:04:59.082Z,51.40
2018-05-31T02:06:04.008Z,51.40
2018-05-31T02:07:09.048Z,51.30
2018-05-31T02:08:14.128Z,51.30
2018-05-31T02:09:19.204Z,51.30
2018-05-31T02:10:24.105Z,51.10
2018-05-31T02:11:29.077Z,51.30
2018-05-31T02:12:34.032Z,51.10
2018-05-31T02:13:38.874Z,51.00
2018-05-31T02:14:43.908Z,51.00
2018-05-31T02:15:48.994Z,51.00
2018-05-31T02:16:53.828Z,51.00
2018-05-31T02:17:58.873Z,50.90
2018-05-31T02:19:04.703Z,50.80
2018-05-31T02:20:09.578Z,50.90
2018-05-31T02:21:14.467Z,50.80
2018-05-31T02:22:19.335Z,50.70
2018-05-31T02:23:24.214Z,50.70
2018-05-31T02:24:28.923Z,50.70
2018-05-31T02:25:33.819Z,50.60
2018-05-31T02:26:38.664Z,50.60
2018-05-31T02:27:43.670Z,50.60
2018-05-31T02:28:48.571Z,50.60
2018-05-31T02:29:53.523Z,50.50
2018-05-31T02:30:58.560Z,50.50
2018-05-31T02:32:03.652Z,50.40
2018-05-31T02:33:08.390Z,50.30
2018-05-31T02:34:13.091Z,50.30
2018-05-31T02:35:18.178Z,50.10
2018-05-31T02:36:23.811Z,50.20
2018-05-31T02:37:28.832Z,50.20
2018-05-31T02:38:33.687Z,50.20
2018-05-31T02:39:38.450Z,50.10
2018-05-31T02:40:44.087Z,50.10
2018-05-31T02:41:49.143Z,50.00
2018-05-31T02:42:53.928Z,50.00
2018-05-31T02:43:58.635Z,50.00
2018-05-31T02:45:03.545Z,49.90
2018-05-31T02:46:08.266Z,49.90
2018-05-31T02:47:13.191Z,49.90
2018-05-31T02:48:18.130Z,49.80
2018-05-31T02:49:23.750Z,49.80
2018-05-31T02:50:29.944Z,49.80
2018-05-31T02:51:35.109Z,49.80
2018-05-31T02:52:39.897Z,50.40
2018-05-31T02:53:45.022Z,50.30
2018-05-31T02:54:49.759Z,49.60
2018-05-31T02:55:54.491Z,49.60
2018-05-31T02:56:59.105Z,49.70
2018-05-31T02:58:04.127Z,49.60
2018-05-31T02:59:09.006Z,49.60
2018-05-31T03:00:14.018Z,49.50
2018-05-31T03:01:19.090Z,49.50
2018-05-31T03:02:24.041Z,49.50
2018-05-31T03:03:29.180Z,49.40
2018-05-31T03:04:34.294Z,49.40
2018-05-31T03:05:39.324Z,49.30
2018-05-31T03:06:44.109Z,49.30
2018-05-31T03:07:49.099Z,49.20
2018-05-31T03:08:53.852Z,49.20
2018-05-31T03:09:58.830Z,49.30
2018-05-31T03:11:03.758Z,49.30
2018-05-31T03:12:08.541Z,49.30
2018-05-31T03:13:13.312Z,49.30
2018-05-31T03:14:18.521Z,49.20
2018-05-31T03:15:23.323Z,49.20
2018-05-31T03:16:28.047Z,49.20
2018-05-31T03:17:32.894Z,49.10
2018-05-31T03:18:37.810Z,49.10
2018-05-31T03:19:42.868Z,49.10
2018-05-31T03:20:47.610Z,49.10
2018-05-31T03:21:52.519Z,49.10
2018-05-31T03:22:57.089Z,49.10
2018-05-31T03:24:01.717Z,49.20
2018-05-31T03:25:06.656Z,49.20
2018-05-31T03:26:11.627Z,49.20
2018-05-31T03:27:16.663Z,49.20
2018-05-31T03:28:21.585Z,49.20
2018-05-31T03:29:26.529Z,49.10
2018-05-31T03:30:31.489Z,49.10
2018-05-31T03:31:36.219Z,49.10
2018-05-31T03:32:40.980Z,49.10
2018-05-31T03:33:46.027Z,49.10
2018-05-31T03:34:50.766Z,49.00
2018-05-31T03:35:55.893Z,49.00
2018-05-31T03:37:00.646Z,49.10
2018-05-31T03:38:05.576Z,49.20
2018-05-31T03:39:10.459Z,49.10
2018-05-31T03:40:15.296Z,49.10
2018-05-31T03:41:20.327Z,49.10
2018-05-31T03:42:25.357Z,49.10
2018-05-31T03:43:30.261Z,49.20
2018-05-31T03:44:35.303Z,49.20
2018-05-31T03:45:40.082Z,49.20
2018-05-31T03:46:45.075Z,49.20
2018-05-31T03:47:49.812Z,49.20
2018-05-31T03:48:54.957Z,49.20
2018-05-31T03:50:00.182Z,49.20
2018-05-31T03:51:05.071Z,49.20
2018-05-31T03:52:10.071Z,49.20
2018-05-31T03:53:14.990Z,49.20
2018-05-31T03:54:20.201Z,49.30
2018-05-31T03:55:24.994Z,49.30
2018-05-31T03:56:29.856Z,49.20
2018-05-31T03:57:34.855Z,49.20
2018-05-31T03:58:39.758Z,49.20
2018-05-31T03:59:46.025Z,49.20
2018-05-31T04:00:50.925Z,49.20
2018-05-31T04:01:55.950Z,49.20
2018-05-31T04:03:01.059Z,49.20
2018-05-31T04:04:05.963Z,49.20
2018-05-31T04:05:10.988Z,49.20
2018-05-31T04:06:15.910Z,49.20
2018-05-31T04:07:20.834Z,49.20
2018-05-31T04:08:25.862Z,49.20
2018-05-31T04:09:30.799Z,49.20
2018-05-31T04:10:35.734Z,49.20
2018-05-31T04:11:40.569Z,49.20
2018-05-31T04:12:45.309Z,49.20
2018-05-31T04:13:50.221Z,49.20
2018-05-31T04:14:54.912Z,49.30
2018-05-31T04:15:59.833Z,49.30
2018-05-31T04:17:04.711Z,49.20
2018-05-31T04:18:09.738Z,49.20
2018-05-31T04:19:14.434Z,49.20
2018-05-31T04:20:19.211Z,49.20
2018-05-31T04:21:24.104Z,49.20
2018-05-31T04:22:29.013Z,49.10
2018-05-31T04:23:35.000Z,49.10
2018-05-31T04:24:40.930Z,49.10
2018-05-31T04:25:45.767Z,49.20
2018-05-31T04:26:51.368Z,49.20
2018-05-31T04:27:56.783Z,49.10
2018-05-31T04:29:01.435Z,49.00
2018-05-31T04:30:06.413Z,49.10
2018-05-31T04:31:11.473Z,49.00
2018-05-31T04:32:16.677Z,49.00
2018-05-31T04:33:21.601Z,48.90
2018-05-31T04:34:26.678Z,48.80
2018-05-31T04:35:31.394Z,48.80
2018-05-31T04:36:37.167Z,48.80
2018-05-31T04:37:41.943Z,48.80
2018-05-31T04:38:47.043Z,48.80
2018-05-31T04:39:52.287Z,48.80
2018-05-31T04:40:57.264Z,48.80
2018-05-31T04:42:02.343Z,48.70
2018-05-31T04:43:07.319Z,48.80
2018-05-31T04:44:12.207Z,48.80
2018-05-31T04:45:17.203Z,48.70
2018-05-31T04:46:23.365Z,48.80
2018-05-31T04:47:29.153Z,48.80
2018-05-31T04:48:34.206Z,48.70
2018-05-31T04:49:39.831Z,48.70
2018-05-31T04:50:45.016Z,48.80
2018-05-31T04:51:50.555Z,48.80
2018-05-31T04:52:55.417Z,48.70
2018-05-31T04:54:00.266Z,48.80
2018-05-31T04:55:05.115Z,48.80
2018-05-31T04:56:10.023Z,48.80
2018-05-31T04:57:14.926Z,49.50
2018-05-31T04:58:19.793Z,48.80
2018-05-31T04:59:24.544Z,48.80
2018-05-31T05:00:29.377Z,48.80
2018-05-31T05:01:34.356Z,48.80
2018-05-31T05:02:39.393Z,48.80
2018-05-31T05:03:44.554Z,48.90
2018-05-31T05:04:49.487Z,48.80
2018-05-31T05:05:54.570Z,48.80
2018-05-31T05:06:59.417Z,48.90
2018-05-31T05:08:04.416Z,48.90
2018-05-31T05:09:09.223Z,48.90
2018-05-31T05:10:14.256Z,48.90
2018-05-31T05:11:19.291Z,49.00
2018-05-31T05:12:24.206Z,48.90
2018-05-31T05:13:29.025Z,48.90
2018-05-31T05:14:34.117Z,48.90
2018-05-31T05:15:38.966Z,48.90
2018-05-31T05:16:43.816Z,49.00
2018-05-31T05:17:48.687Z,48.90
2018-05-31T05:18:53.510Z,48.90
2018-05-31T05:19:58.433Z,48.90
2018-05-31T05:21:03.076Z,49.00
2018-05-31T05:22:07.922Z,49.10
2018-05-31T05:23:12.642Z,49.10
2018-05-31T05:24:17.296Z,49.10
2018-05-31T05:25:22.117Z,49.30
2018-05-31T05:26:26.893Z,49.30
2018-05-31T05:27:31.507Z,49.30
2018-05-31T05:28:36.419Z,49.30
2018-05-31T05:29:41.148Z,49.40
2018-05-31T05:30:46.042Z,49.40
2018-05-31T05:31:50.842Z,49.30
2018-05-31T05:32:55.969Z,49.40
2018-05-31T05:34:00.661Z,49.40
2018-05-31T05:35:05.422Z,49.40
2018-05-31T05:36:10.363Z,49.40
2018-05-31T05:37:15.140Z,49.40
2018-05-31T05:38:19.881Z,49.40
2018-05-31T05:39:24.924Z,49.40
2018-05-31T05:40:29.802Z,49.40
2018-05-31T05:41:34.501Z,49.40
2018-05-31T05:42:39.542Z,49.30
2018-05-31T05:43:44.405Z,49.30
2018-05-31T05:44:49.136Z,49.40
2018-05-31T05:45:53.984Z,49.40
2018-05-31T05:46:58.599Z,49.50
2018-05-31T05:48:03.552Z,49.60
2018-05-31T05:49:08.598Z,49.60
2018-05-31T05:50:13.830Z,49.60
2018-05-31T05:51:19.011Z,49.60
2018-05-31T05:52:24.005Z,49.70
2018-05-31T05:53:29.204Z,49.70
2018-05-31T05:54:34.430Z,49.70
2018-05-31T05:55:39.472Z,49.80
2018-05-31T05:56:44.309Z,49.80
2018-05-31T05:57:49.389Z,49.90
2018-05-31T05:58:54.269Z,49.80
2018-05-31T05:59:59.306Z,49.80
2018-05-31T06:01:04.291Z,49.90
2018-05-31T06:02:09.248Z,49.90
2018-05-31T06:03:14.202Z,49.90
2018-05-31T06:04:19.341Z,49.90
2018-05-31T06:05:24.043Z,50.00
2018-05-31T06:06:28.986Z,49.90
2018-05-31T06:07:33.875Z,50.10
2018-05-31T06:08:38.817Z,50.00
2018-05-31T06:09:43.649Z,50.00
2018-05-31T06:10:48.609Z,50.10
2018-05-31T06:11:53.453Z,50.20
2018-05-31T06:12:58.270Z,50.20
2018-05-31T06:14:03.160Z,50.30
2018-05-31T06:15:08.092Z,50.50
2018-05-31T06:16:12.929Z,50.50
2018-05-31T06:17:17.644Z,50.60
2018-05-31T06:18:22.471Z,50.60
2018-05-31T06:19:27.319Z,50.60
2018-05-31T06:20:32.200Z,50.60
2018-05-31T06:21:37.099Z,50.60
2018-05-31T06:22:41.938Z,50.70
2018-05-31T06:23:46.833Z,50.60
2018-05-31T06:24:51.462Z,50.50
2018-05-31T06:25:56.344Z,50.50
2018-05-31T06:27:01.193Z,50.40
2018-05-31T06:28:06.026Z,50.40
2018-05-31T06:29:10.873Z,50.40
2018-05-31T06:30:15.519Z,50.50
2018-05-31T06:31:20.427Z,50.50
2018-05-31T06:32:25.291Z,50.60
2018-05-31T06:33:30.118Z,50.70
2018-05-31T06:34:34.722Z,50.80
2018-05-31T06:35:39.657Z,50.90
2018-05-31T06:36:45.554Z,50.90
2018-05-31T06:37:50.674Z,50.90
2018-05-31T06:38:56.503Z,50.90
2018-05-31T06:40:02.144Z,50.90
2018-05-31T06:41:07.112Z,50.90
2018-05-31T06:42:11.902Z,51.00
2018-05-31T06:43:16.838Z,51.10
2018-05-31T06:44:22.975Z,51.20
2018-05-31T06:45:27.923Z,51.20
2018-05-31T06:46:33.059Z,51.20
2018-05-31T06:47:37.860Z,51.30
2018-05-31T06:48:42.651Z,51.30
2018-05-31T06:49:47.313Z,51.60
2018-05-31T06:50:52.332Z,51.40
2018-05-31T06:51:57.269Z,51.50
2018-05-31T06:53:02.063Z,51.50
2018-05-31T06:54:06.929Z,51.50
2018-05-31T06:55:11.751Z,51.60
2018-05-31T06:56:16.615Z,51.60
2018-05-31T06:57:21.630Z,51.50
2018-05-31T06:58:26.581Z,51.60
2018-05-31T06:59:31.281Z,51.50
2018-05-31T07:00:36.031Z,51.60
2018-05-31T07:01:40.778Z,51.60
2018-05-31T07:02:45.424Z,51.60
2018-05-31T07:03:50.069Z,51.60
2018-05-31T07:04:54.959Z,51.60
2018-05-31T07:05:59.901Z,51.60
2018-05-31T07:07:04.822Z,51.70
2018-05-31T07:08:10.079Z,51.70
2018-05-31T07:09:14.973Z,51.70
2018-05-31T07:10:19.820Z,52.40
2018-05-31T07:11:24.572Z,51.80
2018-05-31T07:12:29.308Z,51.80
2018-05-31T07:13:34.190Z,51.70
2018-05-31T07:14:39.011Z,51.70
2018-05-31T07:15:44.036Z,51.70
2018-05-31T07:16:48.948Z,51.80
2018-05-31T07:17:53.796Z,51.70
2018-05-31T07:18:58.584Z,51.70
2018-05-31T07:20:03.300Z,51.70
2018-05-31T07:21:08.179Z,51.70
2018-05-31T07:22:12.909Z,51.80
2018-05-31T07:23:17.600Z,51.80
2018-05-31T07:24:22.378Z,51.80
2018-05-31T07:25:27.024Z,51.80
2018-05-31T07:26:31.823Z,51.80
2018-05-31T07:27:36.695Z,51.80
2018-05-31T07:28:41.686Z,51.80
2018-05-31T07:29:46.354Z,51.80
2018-05-31T07:30:51.146Z,51.80
2018-05-31T07:31:55.751Z,51.80
2018-05-31T07:33:00.508Z,51.80
2018-05-31T07:34:05.271Z,51.70
2018-05-31T07:35:09.975Z,51.80
2018-05-31T07:36:14.663Z,51.80
2018-05-31T07:37:19.260Z,51.80
2018-05-31T07:38:24.173Z,51.80
2018-05-31T07:39:28.928Z,51.80
2018-05-31T07:40:33.834Z,51.90
2018-05-31T07:41:38.696Z,51.90
2018-05-31T07:42:43.536Z,51.90
2018-05-31T07:43:48.409Z,51.90
2018-05-31T07:44:53.297Z,51.90
2018-05-31T07:45:58.088Z,51.80
2018-05-31T07:47:02.879Z,51.80
2018-05-31T07:48:07.688Z,51.80
2018-05-31T07:49:12.381Z,51.80
2018-05-31T07:50:17.602Z,51.80
2018-05-31T07:51:22.458Z,51.80
2018-05-31T07:52:27.235Z,51.80
2018-05-31T07:53:32.371Z,51.80
2018-05-31T07:54:37.311Z,51.80
2018-05-31T07:55:42.773Z,51.70
2018-05-31T07:56:47.733Z,51.70
2018-05-31T07:57:52.548Z,51.70
2018-05-31T07:58:57.605Z,51.70
2018-05-31T08:00:02.545Z,51.70
2018-05-31T08:01:07.277Z,51.70
2018-05-31T08:02:12.123Z,51.60
2018-05-31T08:03:18.423Z,51.60
2018-05-31T08:04:23.177Z,51.60
2018-05-31T08:05:28.175Z,51.60
2018-05-31T08:06:33.173Z,51.60
2018-05-31T08:07:38.092Z,51.50
2018-05-31T08:08:42.721Z,51.60
2018-05-31T08:09:47.564Z,51.50
2018-05-31T08:10:52.477Z,51.50
2018-05-31T08:11:57.249Z,51.50
2018-05-31T08:13:02.287Z,51.50
2018-05-31T08:14:07.111Z,51.40
2018-05-31T08:15:11.886Z,51.50
2018-05-31T08:16:16.680Z,51.50
2018-05-31T08:17:21.385Z,51.40
2018-05-31T08:18:26.288Z,51.40
2018-05-31T08:19:31.099Z,51.40
2018-05-31T08:20:36.039Z,51.40
2018-05-31T08:21:41.023Z,51.40
2018-05-31T08:22:45.979Z,51.40
2018-05-31T08:23:50.873Z,51.40
2018-05-31T08:24:55.703Z,51.30
2018-05-31T08:26:00.642Z,51.30
2018-05-31T08:27:06.263Z,51.30
2018-05-31T08:28:11.079Z,51.30
2018-05-31T08:29:16.106Z,51.30
2018-05-31T08:30:21.072Z,51.30
2018-05-31T08:31:25.927Z,51.30
2018-05-31T08:32:30.959Z,51.30
2018-05-31T08:33:35.917Z,51.20
2018-05-31T08:34:40.659Z,51.30
2018-05-31T08:35:45.700Z,51.20
2018-05-31T08:36:50.376Z,51.20
2018-05-31T08:37:55.408Z,51.30
2018-05-31T08:39:00.060Z,51.30
2018-05-31T08:40:04.998Z,51.20
2018-05-31T08:41:09.778Z,51.20
2018-05-31T08:42:14.735Z,51.20
2018-05-31T08:43:19.356Z,51.20
2018-05-31T08:44:24.264Z,51.20
2018-05-31T08:45:29.116Z,51.20
2018-05-31T08:46:34.013Z,51.20
2018-05-31T08:47:38.835Z,51.20
2018-05-31T08:48:43.826Z,51.20
2018-05-31T08:49:48.800Z,51.20
2018-05-31T08:50:53.734Z,51.20
2018-05-31T08:51:58.558Z,51.20
2018-05-31T08:53:03.311Z,51.20
2018-05-31T08:54:08.184Z,51.20
2018-05-31T08:55:13.084Z,51.20
2018-05-31T08:56:17.929Z,51.20
2018-05-31T08:57:22.911Z,51.20
2018-05-31T08:58:27.911Z,51.20
2018-05-31T08:59:32.784Z,51.20
2018-05-31T09:00:37.859Z,51.20
2018-05-31T09:01:42.693Z,51.20
2018-05-31T09:02:47.327Z,51.10
2018-05-31T09:03:52.275Z,51.20
2018-05-31T09:04:57.296Z,51.20
2018-05-31T09:06:02.201Z,51.20
2018-05-31T09:07:07.006Z,51.20
2018-05-31T09:08:11.900Z,51.20
2018-05-31T09:09:16.864Z,51.20
2018-05-31T09:10:21.625Z,51.20
2018-05-31T09:11:26.777Z,51.20
2018-05-31T09:12:31.809Z,51.20
2018-05-31T09:13:36.716Z,51.20
2018-05-31T09:14:41.438Z,51.20
2018-05-31T09:15:46.222Z,51.20
2018-05-31T09:16:51.120Z,51.20
2018-05-31T09:17:56.113Z,51.20
2018-05-31T09:19:00.923Z,51.20
2018-05-31T09:20:05.773Z,51.20
2018-05-31T09:21:10.618Z,51.20
2018-05-31T09:22:15.450Z,51.30
2018-05-31T09:23:20.157Z,51.30
2018-05-31T09:24:24.915Z,51.90
2018-05-31T09:25:29.693Z,51.30
2018-05-31T09:26:34.336Z,51.30
2018-05-31T09:27:39.149Z,51.20
2018-05-31T09:28:44.174Z,51.30
2018-05-31T09:29:49.003Z,51.30
2018-05-31T09:30:54.372Z,51.30
2018-05-31T09:31:59.022Z,51.30
2018-05-31T09:33:03.611Z,51.40
2018-05-31T09:34:08.320Z,51.30
2018-05-31T09:35:13.265Z,51.30
2018-05-31T09:36:18.052Z,51.40
2018-05-31T09:37:23.143Z,51.40
2018-05-31T09:38:28.054Z,51.30
2018-05-31T09:39:32.876Z,51.40
2018-05-31T09:40:37.853Z,51.60
2018-05-31T09:41:42.714Z,51.80
2018-05-31T09:42:47.417Z,51.80
2018-05-31T09:43:52.322Z,52.00
2018-05-31T09:44:57.153Z,52.00
2018-05-31T09:46:02.180Z,52.20
2018-05-31T09:47:07.011Z,52.30
2018-05-31T09:48:11.703Z,52.40
2018-05-31T09:49:16.506Z,52.50
2018-05-31T09:50:21.268Z,52.50
2018-05-31T09:51:25.874Z,52.60
2018-05-31T09:52:30.843Z,52.60
2018-05-31T09:53:35.708Z,52.60
2018-05-31T09:54:40.456Z,52.70
2018-05-31T09:55:45.220Z,52.80
2018-05-31T09:56:50.106Z,52.70
2018-05-31T09:57:54.949Z,52.80
2018-05-31T09:58:59.731Z,52.80
2018-05-31T10:00:04.664Z,52.70
2018-05-31T10:01:09.495Z,52.70
2018-05-31T10:02:14.605Z,52.80
2018-05-31T10:03:19.576Z,52.90
2018-05-31T10:04:24.737Z,53.00
2018-05-31T10:05:29.863Z,53.00
2018-05-31T10:06:35.028Z,53.10
2018-05-31T10:07:39.862Z,53.10
2018-05-31T10:08:44.681Z,53.20
2018-05-31T10:09:49.589Z,53.20
2018-05-31T10:10:54.550Z,53.20
2018-05-31T10:11:59.434Z,53.10
2018-05-31T10:13:04.445Z,53.00
2018-05-31T10:14:09.644Z,53.20
2018-05-31T10:15:14.489Z,53.20
2018-05-31T10:16:19.585Z,53.30
2018-05-31T10:17:24.391Z,53.20
2018-05-31T10:18:29.275Z,53.20
2018-05-31T10:19:33.963Z,53.20
2018-05-31T10:20:38.667Z,53.20
2018-05-31T10:21:43.451Z,53.10
2018-05-31T10:22:48.276Z,53.10
2018-05-31T10:23:53.207Z,53.10
2018-05-31T10:24:58.278Z,53.00
2018-05-31T10:26:03.043Z,53.00
2018-05-31T10:27:08.021Z,52.90
2018-05-31T10:28:12.712Z,52.90
2018-05-31T10:29:17.747Z,52.90
2018-05-31T10:30:22.937Z,52.90
2018-05-31T10:31:27.706Z,52.90
2018-05-31T10:32:32.512Z,52.80
2018-05-31T10:33:37.506Z,52.80
2018-05-31T10:34:42.239Z,52.70
2018-05-31T10:35:47.248Z,52.80
2018-05-31T10:36:52.113Z,52.80
2018-05-31T10:37:56.932Z,52.70
2018-05-31T10:39:01.741Z,52.70
2018-05-31T10:40:06.750Z,52.70
2018-05-31T10:41:11.832Z,52.70
2018-05-31T10:42:16.899Z,52.50
2018-05-31T10:43:21.649Z,52.50
2018-05-31T10:44:26.706Z,52.70
2018-05-31T10:45:31.498Z,52.70
2018-05-31T10:46:36.326Z,52.60
2018-05-31T10:47:41.115Z,52.70
2018-05-31T10:48:45.747Z,52.80
2018-05-31T10:49:50.526Z,52.90
2018-05-31T10:50:55.424Z,53.10
2018-05-31T10:52:00.077Z,53.00
2018-05-31T10:53:04.907Z,53.10
2018-05-31T10:54:09.921Z,53.10
2018-05-31T10:55:14.985Z,53.20
2018-05-31T10:56:19.864Z,53.20
2018-05-31T10:57:24.818Z,53.30
2018-05-31T10:58:29.813Z,53.40
2018-05-31T10:59:34.873Z,53.40
2018-05-31T11:00:39.725Z,53.50
2018-05-31T11:01:44.444Z,53.50
2018-05-31T11:02:49.424Z,53.50
2018-05-31T11:03:54.407Z,53.50
2018-05-31T11:04:59.176Z,53.50
2018-05-31T11:06:04.164Z,53.60
2018-05-31T11:07:09.122Z,53.60
2018-05-31T11:08:13.875Z,53.70
2018-05-31T11:09:18.856Z,53.70
2018-05-31T11:10:23.803Z,53.80
2018-05-31T11:11:28.584Z,53.90
2018-05-31T11:12:33.342Z,53.90
2018-05-31T11:13:38.341Z,54.00
2018-05-31T11:14:43.222Z,54.20
2018-05-31T11:15:48.242Z,54.30
2018-05-31T11:16:52.968Z,54.60
2018-05-31T11:17:57.921Z,54.40
2018-05-31T11:19:02.936Z,54.50
2018-05-31T11:20:07.920Z,54.60
2018-05-31T11:21:12.957Z,54.60
2018-05-31T11:22:17.845Z,54.70
2018-05-31T11:23:22.835Z,54.70
2018-05-31T11:24:27.941Z,54.70
2018-05-31T11:25:32.853Z,54.70
2018-05-31T11:26:37.665Z,54.90
2018-05-31T11:27:42.399Z,54.90
2018-05-31T11:28:47.247Z,54.90
2018-05-31T11:29:51.981Z,55.00
2018-05-31T11:30:56.802Z,55.00
2018-05-31T11:32:01.834Z,55.00
2018-05-31T11:33:06.705Z,55.00
2018-05-31T11:34:11.765Z,55.70
2018-05-31T11:35:16.930Z,55.10
2018-05-31T11:36:22.071Z,55.00
2018-05-31T11:37:26.861Z,55.00
2018-05-31T11:38:31.593Z,55.00
2018-05-31T11:39:36.346Z,55.10
2018-05-31T11:40:41.318Z,55.10
2018-05-31T11:41:46.359Z,55.10
2018-05-31T11:42:51.031Z,55.20
2018-05-31T11:43:56.187Z,55.10
2018-05-31T11:45:01.142Z,55.10
2018-05-31T11:46:06.030Z,55.10
2018-05-31T11:47:10.899Z,55.20
2018-05-31T11:48:15.720Z,55.10
2018-05-31T11:49:20.730Z,55.10
2018-05-31T11:50:26.023Z,55.20
2018-05-31T11:51:30.967Z,55.30
2018-05-31T11:52:36.019Z,55.30
2018-05-31T11:53:40.842Z,55.40
2018-05-31T11:54:45.896Z,55.50
2018-05-31T11:55:50.876Z,55.60
2018-05-31T11:56:56.133Z,55.70
2018-05-31T11:58:01.159Z,55.70
2018-05-31T11:59:06.323Z,55.70
2018-05-31T12:00:11.224Z,55.70
2018-05-31T12:01:16.128Z,55.70
2018-05-31T12:02:21.180Z,55.70
2018-05-31T12:03:26.619Z,55.70
2018-05-31T12:04:31.754Z,55.70
2018-05-31T12:05:36.847Z,55.70
2018-05-31T12:06:41.532Z,55.70
2018-05-31T12:07:46.458Z,55.80
2018-05-31T12:08:51.360Z,55.80
2018-05-31T12:09:56.268Z,55.80
2018-05-31T12:11:01.106Z,55.90
2018-05-31T12:12:06.211Z,55.80
2018-05-31T12:13:11.358Z,55.80
2018-05-31T12:14:16.485Z,55.80
2018-05-31T12:15:21.274Z,55.80
2018-05-31T12:16:26.409Z,55.80
2018-05-31T12:17:31.229Z,55.70
2018-05-31T12:18:36.356Z,55.70
2018-05-31T12:19:41.241Z,55.70
2018-05-31T12:20:46.414Z,55.60
2018-05-31T12:21:51.258Z,55.60
2018-05-31T12:22:56.071Z,55.60
2018-05-31T12:24:01.139Z,55.50
2018-05-31T12:25:05.958Z,55.60
2018-05-31T12:26:10.881Z,55.40
2018-05-31T12:27:15.863Z,55.40
2018-05-31T12:28:20.749Z,55.40
2018-05-31T12:29:25.668Z,55.30
2018-05-31T12:30:30.558Z,55.30
2018-05-31T12:31:35.612Z,55.30
2018-05-31T12:32:40.369Z,55.20
2018-05-31T12:33:45.425Z,55.20
2018-05-31T12:34:50.300Z,55.20
2018-05-31T12:35:55.440Z,55.10
2018-05-31T12:37:00.114Z,55.10
2018-05-31T12:38:05.202Z,55.10
2018-05-31T12:39:09.879Z,55.00
2018-05-31T12:40:14.823Z,55.00
2018-05-31T12:41:19.612Z,55.00
2018-05-31T12:42:24.356Z,54.90
2018-05-31T12:43:30.255Z,54.90
2018-05-31T12:44:35.069Z,54.90
2018-05-31T12:45:39.822Z,54.90
2018-05-31T12:46:44.515Z,54.90
2018-05-31T12:47:49.226Z,54.90
2018-05-31T12:48:54.248Z,54.80
2018-05-31T12:49:59.118Z,54.80
2018-05-31T12:51:04.084Z,54.80
2018-05-31T12:52:08.816Z,54.80
2018-05-31T12:53:13.542Z,54.70
2018-05-31T12:54:18.301Z,54.70
2018-05-31T12:55:23.523Z,54.70
2018-05-31T12:56:28.374Z,54.60
2018-05-31T12:57:33.206Z,54.60
2018-05-31T12:58:38.218Z,54.60
2018-05-31T12:59:42.993Z,54.60
2018-05-31T13:00:47.723Z,54.50
2018-05-31T13:01:52.713Z,54.50
2018-05-31T13:02:57.662Z,54.50
2018-05-31T13:04:02.523Z,54.50
2018-05-31T13:05:07.353Z,54.40
2018-05-31T13:06:12.160Z,54.40
2018-05-31T13:07:16.872Z,54.40
2018-05-31T13:08:21.791Z,54.30
2018-05-31T13:09:26.936Z,54.30
2018-05-31T13:10:32.025Z,54.30
2018-05-31T13:11:36.917Z,54.20
2018-05-31T13:12:41.851Z,54.20
2018-05-31T13:13:46.830Z,54.20
2018-05-31T13:14:51.917Z,54.20
2018-05-31T13:15:56.808Z,54.20
2018-05-31T13:17:01.864Z,54.20
2018-05-31T13:18:06.618Z,54.20
2018-05-31T13:19:11.437Z,54.10
2018-05-31T13:20:17.614Z,54.10
2018-05-31T13:21:22.384Z,54.10
2018-05-31T13:22:27.397Z,54.10
2018-05-31T13:23:32.234Z,54.10
2018-05-31T13:24:36.959Z,54.00
2018-05-31T13:25:41.933Z,54.00
2018-05-31T13:26:46.660Z,53.90
2018-05-31T13:27:51.538Z,53.90
2018-05-31T13:28:56.641Z,54.00
2018-05-31T13:30:01.567Z,54.00
2018-05-31T13:31:06.734Z,53.90
2018-05-31T13:32:11.393Z,53.90
2018-05-31T13:33:16.316Z,53.90
2018-05-31T13:34:21.338Z,53.90
2018-05-31T13:35:26.261Z,54.00
2018-05-31T13:36:31.082Z,54.00
2018-05-31T13:37:35.769Z,53.90
2018-05-31T13:38:40.473Z,53.90
2018-05-31T13:39:45.258Z,53.90
2018-05-31T13:40:50.090Z,53.90
2018-05-31T13:41:55.104Z,54.00
2018-05-31T13:42:59.983Z,53.90
2018-05-31T13:44:04.818Z,53.90
2018-05-31T13:45:09.665Z,53.90
2018-05-31T13:46:14.559Z,54.00
2018-05-31T13:47:19.648Z,53.90
2018-05-31T13:48:24.303Z,53.90
2018-05-31T13:49:29.239Z,53.80
2018-05-31T13:50:34.226Z,53.90
2018-05-31T13:51:39.082Z,53.80
2018-05-31T13:52:44.022Z,53.80
2018-05-31T13:53:49.165Z,53.80
2018-05-31T13:54:54.203Z,53.80
2018-05-31T13:55:59.239Z,53.90